sensor_id;sensor_type;location;lat;lon;timestamp;P1;durP1;ratioP1;P2;durP2;ratioP2
53245;SDS011;39569;51.090;-1.786;2023-07-29T00:01:03;5.57;;;5.00;;
53245;SDS011;39569;51.090;-1.786;2023-07-29T00:03:29;8.27;;;6.10;;
53245;SDS011;39569;51.090;-1.786;2023-07-29T00:05:57;9.07;;;5.97;;
53245;SDS011;39569;51.090;-1.786;2023-07-29T00:08:24;10.48;;;6.10;;
53245;SDS011;39569;51.090;-1.786;2023-07-29T00:10:50;9.43;;;5.60;;
53245;SDS011;39569;51.090;-1.786;2023-07-29T00:13:18;10.00;;;6.00;;
53245;SDS011;39569;51.090;-1.786;2023-07-29T00:15:45;13.32;;;5.72;;
53245;SDS011;39569;51.090;-1.786;2023-07-29T00:18:12;19.48;;;7.03;;
53245;SDS011;39569;51.090;-1.786;2023-07-29T00:20:39;12.88;;;5.70;;
53245;SDS011;39569;51.090;-1.786;2023-07-29T00:23:05;14.00;;;5.47;;
53245;SDS011;39569;51.090;-1.786;2023-07-29T00:25:32;11.23;;;5.25;;
53245;SDS011;39569;51.090;-1.786;2023-07-29T00:27:59;6.68;;;5.53;;
53245;SDS011;39569;51.090;-1.786;2023-07-29T00:30:27;11.23;;;6.68;;
53245;SDS011;39569;51.090;-1.786;2023-07-29T00:32:54;10.77;;;5.88;;
53245;SDS011;39569;51.090;-1.786;2023-07-29T00:35:20;7.85;;;5.97;;
53245;SDS011;39569;51.090;-1.786;2023-07-29T00:37:47;10.55;;;6.35;;
53245;SDS011;39569;51.090;-1.786;2023-07-29T00:40:15;9.27;;;5.47;;
53245;SDS011;39569;51.090;-1.786;2023-07-29T00:42:45;10.45;;;5.80;;
53245;SDS011;39569;51.090;-1.786;2023-07-29T00:45:12;9.98;;;4.95;;
53245;SDS011;39569;51.090;-1.786;2023-07-29T00:47:41;10.02;;;5.15;;
53245;SDS011;39569;51.090;-1.786;2023-07-29T00:50:09;8.20;;;5.70;;
53245;SDS011;39569;51.090;-1.786;2023-07-29T00:52:37;10.15;;;5.82;;
53245;SDS011;39569;51.090;-1.786;2023-07-29T00:55:04;8.65;;;5.47;;
53245;SDS011;39569;51.090;-1.786;2023-07-29T00:57:33;7.05;;;5.35;;
53245;SDS011;39569;51.090;-1.786;2023-07-29T01:00:00;9.57;;;6.07;;
53245;SDS011;39569;51.090;-1.786;2023-07-29T01:02:27;10.82;;;5.57;;
53245;SDS011;39569;51.090;-1.786;2023-07-29T01:04:57;9.90;;;6.68;;
53245;SDS011;39569;51.090;-1.786;2023-07-29T01:07:27;7.07;;;5.22;;
53245;SDS011;39569;51.090;-1.786;2023-07-29T01:10:00;12.18;;;5.95;;
53245;SDS011;39569;51.090;-1.786;2023-07-29T01:12:35;9.60;;;5.55;;
53245;SDS011;39569;51.090;-1.786;2023-07-29T01:15:10;10.07;;;5.82;;
53245;SDS011;39569;51.090;-1.786;2023-07-29T01:17:42;18.25;;;6.18;;
53245;SDS011;39569;51.090;-1.786;2023-07-29T01:20:15;10.80;;;5.32;;
53245;SDS011;39569;51.090;-1.786;2023-07-29T01:22:45;6.25;;;5.35;;
53245;SDS011;39569;51.090;-1.786;2023-07-29T01:25:13;11.52;;;6.35;;
53245;SDS011;39569;51.090;-1.786;2023-07-29T01:27:41;11.90;;;6.25;;
53245;SDS011;39569;51.090;-1.786;2023-07-29T01:30:08;9.68;;;5.15;;
53245;SDS011;39569;51.090;-1.786;2023-07-29T01:32:37;8.00;;;6.28;;
53245;SDS011;39569;51.090;-1.786;2023-07-29T01:35:11;9.85;;;6.35;;
53245;SDS011;39569;51.090;-1.786;2023-07-29T01:37:44;13.68;;;6.63;;
53245;SDS011;39569;51.090;-1.786;2023-07-29T01:40:16;12.02;;;6.28;;
53245;SDS011;39569;51.090;-1.786;2023-07-29T01:42:44;19.90;;;6.57;;
53245;SDS011;39569;51.090;-1.786;2023-07-29T01:45:11;16.33;;;6.78;;
53245;SDS011;39569;51.090;-1.786;2023-07-29T01:47:38;14.18;;;6.20;;
53245;SDS011;39569;51.090;-1.786;2023-07-29T01:50:07;12.25;;;6.25;;
53245;SDS011;39569;51.090;-1.786;2023-07-29T01:52:34;13.07;;;5.63;;
53245;SDS011;39569;51.090;-1.786;2023-07-29T01:55:01;11.68;;;6.38;;
53245;SDS011;39569;51.090;-1.786;2023-07-29T01:57:29;8.75;;;5.82;;
53245;SDS011;39569;51.090;-1.786;2023-07-29T01:59:56;13.98;;;6.28;;
53245;SDS011;39569;51.090;-1.786;2023-07-29T02:02:23;14.70;;;5.82;;
53245;SDS011;39569;51.090;-1.786;2023-07-29T02:04:49;14.80;;;6.00;;
53245;SDS011;39569;51.090;-1.786;2023-07-29T02:07:17;11.38;;;6.20;;
53245;SDS011;39569;51.090;-1.786;2023-07-29T02:09:44;7.95;;;4.85;;
53245;SDS011;39569;51.090;-1.786;2023-07-29T02:12:11;26.23;;;7.35;;
53245;SDS011;39569;51.090;-1.786;2023-07-29T02:14:39;17.30;;;6.00;;
53245;SDS011;39569;51.090;-1.786;2023-07-29T02:17:06;15.68;;;6.68;;
53245;SDS011;39569;51.090;-1.786;2023-07-29T02:19:33;13.90;;;6.72;;
53245;SDS011;39569;51.090;-1.786;2023-07-29T02:22:00;16.00;;;5.78;;
53245;SDS011;39569;51.090;-1.786;2023-07-29T02:24:27;11.23;;;5.15;;
53245;SDS011;39569;51.090;-1.786;2023-07-29T02:26:54;8.57;;;5.45;;
53245;SDS011;39569;51.090;-1.786;2023-07-29T02:29:20;8.27;;;6.28;;
53245;SDS011;39569;51.090;-1.786;2023-07-29T02:31:49;14.45;;;5.35;;
53245;SDS011;39569;51.090;-1.786;2023-07-29T02:34:15;12.80;;;5.90;;
53245;SDS011;39569;51.090;-1.786;2023-07-29T02:36:42;11.23;;;6.32;;
53245;SDS011;39569;51.090;-1.786;2023-07-29T02:39:10;10.35;;;6.07;;
53245;SDS011;39569;51.090;-1.786;2023-07-29T02:41:37;12.88;;;6.28;;
53245;SDS011;39569;51.090;-1.786;2023-07-29T02:44:04;12.07;;;6.28;;
53245;SDS011;39569;51.090;-1.786;2023-07-29T02:46:31;13.60;;;6.05;;
53245;SDS011;39569;51.090;-1.786;2023-07-29T02:49:01;19.02;;;6.43;;
53245;SDS011;39569;51.090;-1.786;2023-07-29T02:51:28;10.02;;;6.15;;
53245;SDS011;39569;51.090;-1.786;2023-07-29T02:53:55;7.97;;;5.90;;
53245;SDS011;39569;51.090;-1.786;2023-07-29T02:56:22;6.68;;;5.75;;
53245;SDS011;39569;51.090;-1.786;2023-07-29T02:58:48;15.55;;;5.72;;
53245;SDS011;39569;51.090;-1.786;2023-07-29T03:01:17;9.95;;;5.95;;
53245;SDS011;39569;51.090;-1.786;2023-07-29T03:03:44;10.88;;;6.07;;
53245;SDS011;39569;51.090;-1.786;2023-07-29T03:06:14;8.20;;;5.88;;
53245;SDS011;39569;51.090;-1.786;2023-07-29T03:08:41;7.22;;;5.72;;
53245;SDS011;39569;51.090;-1.786;2023-07-29T03:11:09;18.33;;;7.65;;
53245;SDS011;39569;51.090;-1.786;2023-07-29T03:13:39;15.52;;;6.80;;
53245;SDS011;39569;51.090;-1.786;2023-07-29T03:16:06;12.45;;;5.78;;
53245;SDS011;39569;51.090;-1.786;2023-07-29T03:18:33;10.40;;;6.25;;
53245;SDS011;39569;51.090;-1.786;2023-07-29T03:21:00;13.95;;;6.03;;
53245;SDS011;39569;51.090;-1.786;2023-07-29T03:23:29;11.40;;;6.45;;
53245;SDS011;39569;51.090;-1.786;2023-07-29T03:25:57;12.00;;;6.45;;
53245;SDS011;39569;51.090;-1.786;2023-07-29T03:28:27;7.72;;;5.57;;
53245;SDS011;39569;51.090;-1.786;2023-07-29T03:30:55;8.88;;;6.00;;
53245;SDS011;39569;51.090;-1.786;2023-07-29T03:33:23;11.45;;;6.63;;
53245;SDS011;39569;51.090;-1.786;2023-07-29T03:35:51;8.45;;;5.85;;
53245;SDS011;39569;51.090;-1.786;2023-07-29T03:38:18;12.07;;;6.75;;
53245;SDS011;39569;51.090;-1.786;2023-07-29T03:40:46;11.30;;;7.20;;
53245;SDS011;39569;51.090;-1.786;2023-07-29T03:43:13;8.20;;;5.55;;
53245;SDS011;39569;51.090;-1.786;2023-07-29T03:45:40;6.85;;;5.35;;
53245;SDS011;39569;51.090;-1.786;2023-07-29T03:48:07;9.10;;;5.65;;
53245;SDS011;39569;51.090;-1.786;2023-07-29T03:50:34;14.85;;;6.85;;
53245;SDS011;39569;51.090;-1.786;2023-07-29T03:53:01;8.55;;;5.75;;
53245;SDS011;39569;51.090;-1.786;2023-07-29T03:55:28;12.25;;;6.00;;
53245;SDS011;39569;51.090;-1.786;2023-07-29T03:57:57;8.13;;;5.28;;
53245;SDS011;39569;51.090;-1.786;2023-07-29T04:00:24;8.80;;;5.93;;
53245;SDS011;39569;51.090;-1.786;2023-07-29T04:02:51;10.15;;;5.32;;
53245;SDS011;39569;51.090;-1.786;2023-07-29T04:05:18;15.35;;;6.78;;
53245;SDS011;39569;51.090;-1.786;2023-07-29T04:07:45;20.55;;;6.60;;
53245;SDS011;39569;51.090;-1.786;2023-07-29T04:10:12;9.15;;;5.95;;
53245;SDS011;39569;51.090;-1.786;2023-07-29T04:12:39;10.70;;;6.43;;
53245;SDS011;39569;51.090;-1.786;2023-07-29T04:15:08;11.57;;;6.03;;
53245;SDS011;39569;51.090;-1.786;2023-07-29T04:17:35;9.93;;;5.55;;
53245;SDS011;39569;51.090;-1.786;2023-07-29T04:20:02;8.07;;;5.30;;
53245;SDS011;39569;51.090;-1.786;2023-07-29T04:22:29;12.05;;;5.25;;
53245;SDS011;39569;51.090;-1.786;2023-07-29T04:24:55;13.07;;;6.22;;
53245;SDS011;39569;51.090;-1.786;2023-07-29T04:27:22;7.32;;;5.05;;
53245;SDS011;39569;51.090;-1.786;2023-07-29T04:29:49;12.70;;;5.50;;
53245;SDS011;39569;51.090;-1.786;2023-07-29T04:32:17;8.10;;;5.47;;
53245;SDS011;39569;51.090;-1.786;2023-07-29T04:34:44;12.52;;;6.00;;
53245;SDS011;39569;51.090;-1.786;2023-07-29T04:37:10;8.07;;;5.68;;
53245;SDS011;39569;51.090;-1.786;2023-07-29T04:39:37;5.45;;;4.95;;
53245;SDS011;39569;51.090;-1.786;2023-07-29T04:42:04;10.57;;;4.55;;
53245;SDS011;39569;51.090;-1.786;2023-07-29T04:44:31;7.63;;;5.93;;
53245;SDS011;39569;51.090;-1.786;2023-07-29T04:46:58;10.80;;;5.78;;
53245;SDS011;39569;51.090;-1.786;2023-07-29T04:49:26;8.75;;;5.65;;
53245;SDS011;39569;51.090;-1.786;2023-07-29T04:51:53;9.30;;;6.22;;
53245;SDS011;39569;51.090;-1.786;2023-07-29T04:54:19;5.47;;;4.78;;
53245;SDS011;39569;51.090;-1.786;2023-07-29T04:56:46;15.52;;;6.65;;
53245;SDS011;39569;51.090;-1.786;2023-07-29T04:59:13;13.82;;;6.55;;
53245;SDS011;39569;51.090;-1.786;2023-07-29T05:01:40;5.38;;;4.75;;
53245;SDS011;39569;51.090;-1.786;2023-07-29T05:04:08;6.53;;;5.90;;
53245;SDS011;39569;51.090;-1.786;2023-07-29T05:06:36;12.25;;;6.30;;
53245;SDS011;39569;51.090;-1.786;2023-07-29T05:09:12;15.43;;;6.68;;
53245;SDS011;39569;51.090;-1.786;2023-07-29T05:11:39;6.82;;;6.22;;
53245;SDS011;39569;51.090;-1.786;2023-07-29T05:14:06;10.35;;;5.53;;
53245;SDS011;39569;51.090;-1.786;2023-07-29T05:16:34;21.65;;;6.78;;
53245;SDS011;39569;51.090;-1.786;2023-07-29T05:19:01;7.30;;;5.43;;
53245;SDS011;39569;51.090;-1.786;2023-07-29T05:21:29;10.98;;;5.53;;
53245;SDS011;39569;51.090;-1.786;2023-07-29T05:23:57;13.30;;;5.70;;
53245;SDS011;39569;51.090;-1.786;2023-07-29T05:26:24;12.70;;;5.38;;
53245;SDS011;39569;51.090;-1.786;2023-07-29T05:28:51;5.30;;;4.80;;
53245;SDS011;39569;51.090;-1.786;2023-07-29T05:31:17;5.40;;;4.85;;
53245;SDS011;39569;51.090;-1.786;2023-07-29T05:33:44;5.25;;;4.15;;
53245;SDS011;39569;51.090;-1.786;2023-07-29T05:36:11;4.93;;;4.30;;
53245;SDS011;39569;51.090;-1.786;2023-07-29T05:38:38;4.93;;;4.38;;
53245;SDS011;39569;51.090;-1.786;2023-07-29T05:41:06;6.63;;;4.38;;
53245;SDS011;39569;51.090;-1.786;2023-07-29T05:43:32;4.47;;;3.33;;
53245;SDS011;39569;51.090;-1.786;2023-07-29T05:45:59;4.72;;;3.72;;
53245;SDS011;39569;51.090;-1.786;2023-07-29T05:48:26;4.05;;;3.65;;
53245;SDS011;39569;51.090;-1.786;2023-07-29T05:50:53;3.88;;;3.58;;
53245;SDS011;39569;51.090;-1.786;2023-07-29T05:53:20;3.88;;;3.38;;
53245;SDS011;39569;51.090;-1.786;2023-07-29T05:55:47;4.28;;;3.38;;
53245;SDS011;39569;51.090;-1.786;2023-07-29T05:58:15;3.50;;;3.28;;
53245;SDS011;39569;51.090;-1.786;2023-07-29T06:00:42;5.38;;;3.72;;
53245;SDS011;39569;51.090;-1.786;2023-07-29T06:03:08;5.28;;;3.80;;
53245;SDS011;39569;51.090;-1.786;2023-07-29T06:05:35;4.43;;;3.92;;
53245;SDS011;39569;51.090;-1.786;2023-07-29T06:08:02;4.22;;;3.83;;
53245;SDS011;39569;51.090;-1.786;2023-07-29T06:10:29;7.00;;;3.30;;
53245;SDS011;39569;51.090;-1.786;2023-07-29T06:12:56;4.88;;;3.58;;
53245;SDS011;39569;51.090;-1.786;2023-07-29T06:15:24;3.53;;;3.22;;
53245;SDS011;39569;51.090;-1.786;2023-07-29T06:17:51;3.28;;;3.05;;
53245;SDS011;39569;51.090;-1.786;2023-07-29T06:20:18;3.85;;;3.42;;
53245;SDS011;39569;51.090;-1.786;2023-07-29T06:22:44;3.35;;;3.03;;
53245;SDS011;39569;51.090;-1.786;2023-07-29T06:25:11;4.03;;;3.28;;
53245;SDS011;39569;51.090;-1.786;2023-07-29T06:27:38;9.50;;;5.30;;
53245;SDS011;39569;51.090;-1.786;2023-07-29T06:30:05;5.43;;;3.08;;
53245;SDS011;39569;51.090;-1.786;2023-07-29T06:32:34;7.82;;;3.13;;
53245;SDS011;39569;51.090;-1.786;2023-07-29T06:35:00;7.65;;;3.63;;
53245;SDS011;39569;51.090;-1.786;2023-07-29T06:37:27;7.45;;;3.88;;
53245;SDS011;39569;51.090;-1.786;2023-07-29T06:39:54;4.72;;;4.32;;
53245;SDS011;39569;51.090;-1.786;2023-07-29T06:42:21;5.70;;;4.72;;
53245;SDS011;39569;51.090;-1.786;2023-07-29T06:44:47;6.05;;;4.07;;
53245;SDS011;39569;51.090;-1.786;2023-07-29T06:47:14;11.30;;;4.18;;
53245;SDS011;39569;51.090;-1.786;2023-07-29T06:49:42;4.43;;;4.03;;
53245;SDS011;39569;51.090;-1.786;2023-07-29T06:52:09;5.72;;;4.13;;
53245;SDS011;39569;51.090;-1.786;2023-07-29T06:54:36;6.15;;;3.72;;
53245;SDS011;39569;51.090;-1.786;2023-07-29T06:57:03;9.70;;;5.35;;
53245;SDS011;39569;51.090;-1.786;2023-07-29T06:59:30;5.28;;;3.53;;
53245;SDS011;39569;51.090;-1.786;2023-07-29T07:01:57;4.93;;;4.22;;
53245;SDS011;39569;51.090;-1.786;2023-07-29T07:04:25;10.32;;;4.13;;
53245;SDS011;39569;51.090;-1.786;2023-07-29T07:06:53;7.10;;;4.15;;
53245;SDS011;39569;51.090;-1.786;2023-07-29T07:09:20;11.52;;;4.35;;
53245;SDS011;39569;51.090;-1.786;2023-07-29T07:11:46;8.77;;;5.07;;
53245;SDS011;39569;51.090;-1.786;2023-07-29T07:14:13;15.45;;;5.53;;
53245;SDS011;39569;51.090;-1.786;2023-07-29T07:16:40;8.60;;;4.03;;
53245;SDS011;39569;51.090;-1.786;2023-07-29T07:19:06;4.00;;;3.15;;
53245;SDS011;39569;51.090;-1.786;2023-07-29T07:21:33;6.65;;;4.13;;
53245;SDS011;39569;51.090;-1.786;2023-07-29T07:24:01;12.90;;;5.10;;
53245;SDS011;39569;51.090;-1.786;2023-07-29T07:26:28;18.52;;;4.65;;
53245;SDS011;39569;51.090;-1.786;2023-07-29T07:28:55;12.27;;;4.18;;
53245;SDS011;39569;51.090;-1.786;2023-07-29T07:31:21;8.02;;;3.88;;
53245;SDS011;39569;51.090;-1.786;2023-07-29T07:33:48;4.43;;;3.85;;
53245;SDS011;39569;51.090;-1.786;2023-07-29T07:36:15;7.43;;;4.13;;
53245;SDS011;39569;51.090;-1.786;2023-07-29T07:38:42;7.55;;;4.18;;
53245;SDS011;39569;51.090;-1.786;2023-07-29T07:41:10;6.82;;;4.90;;
53245;SDS011;39569;51.090;-1.786;2023-07-29T07:43:37;5.70;;;3.17;;
53245;SDS011;39569;51.090;-1.786;2023-07-29T07:46:04;6.05;;;3.65;;
53245;SDS011;39569;51.090;-1.786;2023-07-29T07:48:31;6.85;;;3.85;;
53245;SDS011;39569;51.090;-1.786;2023-07-29T07:50:58;6.95;;;3.50;;
53245;SDS011;39569;51.090;-1.786;2023-07-29T07:53:25;12.38;;;4.78;;
53245;SDS011;39569;51.090;-1.786;2023-07-29T07:55:52;4.35;;;3.05;;
53245;SDS011;39569;51.090;-1.786;2023-07-29T07:58:20;5.13;;;3.13;;
53245;SDS011;39569;51.090;-1.786;2023-07-29T08:00:47;11.02;;;4.00;;
53245;SDS011;39569;51.090;-1.786;2023-07-29T08:03:13;6.60;;;3.80;;
53245;SDS011;39569;51.090;-1.786;2023-07-29T08:05:40;7.32;;;3.55;;
53245;SDS011;39569;51.090;-1.786;2023-07-29T08:08:07;9.35;;;3.97;;
53245;SDS011;39569;51.090;-1.786;2023-07-29T08:10:34;6.95;;;3.35;;
53245;SDS011;39569;51.090;-1.786;2023-07-29T08:13:00;8.85;;;4.65;;
53245;SDS011;39569;51.090;-1.786;2023-07-29T08:15:29;6.22;;;3.78;;
53245;SDS011;39569;51.090;-1.786;2023-07-29T08:17:55;8.57;;;3.83;;
53245;SDS011;39569;51.090;-1.786;2023-07-29T08:20:22;11.52;;;3.40;;
53245;SDS011;39569;51.090;-1.786;2023-07-29T08:22:49;3.08;;;2.65;;
53245;SDS011;39569;51.090;-1.786;2023-07-29T08:25:16;14.80;;;3.88;;
53245;SDS011;39569;51.090;-1.786;2023-07-29T08:27:42;7.03;;;3.22;;
53245;SDS011;39569;51.090;-1.786;2023-07-29T08:30:09;7.55;;;3.13;;
53245;SDS011;39569;51.090;-1.786;2023-07-29T08:32:38;7.63;;;2.83;;
53245;SDS011;39569;51.090;-1.786;2023-07-29T08:35:05;7.78;;;3.78;;
53245;SDS011;39569;51.090;-1.786;2023-07-29T08:37:32;10.40;;;3.60;;
53245;SDS011;39569;51.090;-1.786;2023-07-29T08:40:01;6.45;;;3.60;;
53245;SDS011;39569;51.090;-1.786;2023-07-29T08:42:29;11.10;;;3.40;;
53245;SDS011;39569;51.090;-1.786;2023-07-29T08:44:58;5.63;;;3.08;;
53245;SDS011;39569;51.090;-1.786;2023-07-29T08:47:32;8.60;;;3.55;;
53245;SDS011;39569;51.090;-1.786;2023-07-29T08:50:00;8.27;;;2.78;;
53245;SDS011;39569;51.090;-1.786;2023-07-29T08:52:29;7.43;;;3.00;;
53245;SDS011;39569;51.090;-1.786;2023-07-29T08:54:57;5.75;;;2.90;;
53245;SDS011;39569;51.090;-1.786;2023-07-29T08:57:24;5.53;;;3.30;;
53245;SDS011;39569;51.090;-1.786;2023-07-29T08:59:52;8.00;;;3.20;;
53245;SDS011;39569;51.090;-1.786;2023-07-29T09:02:19;6.75;;;3.35;;
53245;SDS011;39569;51.090;-1.786;2023-07-29T09:04:45;10.68;;;2.95;;
53245;SDS011;39569;51.090;-1.786;2023-07-29T09:07:13;10.75;;;3.90;;
53245;SDS011;39569;51.090;-1.786;2023-07-29T09:09:40;5.30;;;2.58;;
53245;SDS011;39569;51.090;-1.786;2023-07-29T09:12:07;8.75;;;4.07;;
53245;SDS011;39569;51.090;-1.786;2023-07-29T09:14:36;4.30;;;3.30;;
53245;SDS011;39569;51.090;-1.786;2023-07-29T09:17:06;9.20;;;3.70;;
53245;SDS011;39569;51.090;-1.786;2023-07-29T09:19:33;5.75;;;3.17;;
53245;SDS011;39569;51.090;-1.786;2023-07-29T09:22:00;13.40;;;5.50;;
53245;SDS011;39569;51.090;-1.786;2023-07-29T09:24:28;8.85;;;4.05;;
53245;SDS011;39569;51.090;-1.786;2023-07-29T09:26:57;7.18;;;3.35;;
53245;SDS011;39569;51.090;-1.786;2023-07-29T09:29:24;3.92;;;2.75;;
53245;SDS011;39569;51.090;-1.786;2023-07-29T09:31:59;12.93;;;3.88;;
53245;SDS011;39569;51.090;-1.786;2023-07-29T09:34:44;10.68;;;4.00;;
53245;SDS011;39569;51.090;-1.786;2023-07-29T09:37:15;7.13;;;3.60;;
53245;SDS011;39569;51.090;-1.786;2023-07-29T09:39:45;3.78;;;2.55;;
53245;SDS011;39569;51.090;-1.786;2023-07-29T09:42:17;13.82;;;4.15;;
53245;SDS011;39569;51.090;-1.786;2023-07-29T09:44:45;5.75;;;3.22;;
53245;SDS011;39569;51.090;-1.786;2023-07-29T09:47:20;17.50;;;3.90;;
53245;SDS011;39569;51.090;-1.786;2023-07-29T09:49:47;5.65;;;2.33;;
53245;SDS011;39569;51.090;-1.786;2023-07-29T09:52:14;6.10;;;3.15;;
53245;SDS011;39569;51.090;-1.786;2023-07-29T09:54:42;7.50;;;2.83;;
53245;SDS011;39569;51.090;-1.786;2023-07-29T09:57:11;7.07;;;2.80;;
53245;SDS011;39569;51.090;-1.786;2023-07-29T09:59:39;9.02;;;2.50;;
53245;SDS011;39569;51.090;-1.786;2023-07-29T10:02:06;8.48;;;3.47;;
53245;SDS011;39569;51.090;-1.786;2023-07-29T10:04:39;4.25;;;2.80;;
53245;SDS011;39569;51.090;-1.786;2023-07-29T10:07:07;6.13;;;2.40;;
53245;SDS011;39569;51.090;-1.786;2023-07-29T10:09:36;4.88;;;2.50;;
53245;SDS011;39569;51.090;-1.786;2023-07-29T10:12:06;9.75;;;3.08;;
53245;SDS011;39569;51.090;-1.786;2023-07-29T10:14:33;3.53;;;2.13;;
53245;SDS011;39569;51.090;-1.786;2023-07-29T10:17:01;5.28;;;2.08;;
53245;SDS011;39569;51.090;-1.786;2023-07-29T14:25:10;13.27;;;3.97;;
53245;SDS011;39569;51.090;-1.786;2023-07-29T14:27:37;10.45;;;4.43;;
53245;SDS011;39569;51.090;-1.786;2023-07-29T14:30:04;9.85;;;2.92;;
53245;SDS011;39569;51.090;-1.786;2023-07-29T14:32:32;17.08;;;4.50;;
53245;SDS011;39569;51.090;-1.786;2023-07-29T14:34:59;9.60;;;3.72;;
53245;SDS011;39569;51.090;-1.786;2023-07-29T14:37:28;6.32;;;2.78;;
53245;SDS011;39569;51.090;-1.786;2023-07-29T14:39:55;7.97;;;3.28;;
53245;SDS011;39569;51.090;-1.786;2023-07-29T14:42:23;9.30;;;3.50;;
53245;SDS011;39569;51.090;-1.786;2023-07-29T14:44:50;10.48;;;4.03;;
53245;SDS011;39569;51.090;-1.786;2023-07-29T14:47:17;12.68;;;4.05;;
53245;SDS011;39569;51.090;-1.786;2023-07-29T14:49:44;10.02;;;3.53;;
53245;SDS011;39569;51.090;-1.786;2023-07-29T14:52:11;15.40;;;3.88;;
53245;SDS011;39569;51.090;-1.786;2023-07-29T14:54:37;7.60;;;2.80;;
53245;SDS011;39569;51.090;-1.786;2023-07-29T14:57:05;4.85;;;3.13;;
53245;SDS011;39569;51.090;-1.786;2023-07-29T14:59:34;5.10;;;2.75;;
53245;SDS011;39569;51.090;-1.786;2023-07-29T15:02:01;7.28;;;2.85;;
53245;SDS011;39569;51.090;-1.786;2023-07-29T15:04:28;7.50;;;3.03;;
53245;SDS011;39569;51.090;-1.786;2023-07-29T15:06:54;7.47;;;3.08;;
53245;SDS011;39569;51.090;-1.786;2023-07-29T15:09:22;11.38;;;3.10;;
53245;SDS011;39569;51.090;-1.786;2023-07-29T15:11:49;7.53;;;2.65;;
53245;SDS011;39569;51.090;-1.786;2023-07-29T15:14:16;4.35;;;2.63;;
53245;SDS011;39569;51.090;-1.786;2023-07-29T15:16:44;5.18;;;1.88;;
53245;SDS011;39569;51.090;-1.786;2023-07-29T15:19:11;8.68;;;2.97;;
53245;SDS011;39569;51.090;-1.786;2023-07-29T15:21:39;2.22;;;1.88;;
53245;SDS011;39569;51.090;-1.786;2023-07-29T15:24:06;8.88;;;3.22;;
53245;SDS011;39569;51.090;-1.786;2023-07-29T15:26:32;4.68;;;2.00;;
53245;SDS011;39569;51.090;-1.786;2023-07-29T15:29:00;6.13;;;1.67;;
53245;SDS011;39569;51.090;-1.786;2023-07-29T15:31:27;4.40;;;1.90;;
53245;SDS011;39569;51.090;-1.786;2023-07-29T15:33:55;2.08;;;1.25;;
53245;SDS011;39569;51.090;-1.786;2023-07-29T15:36:22;4.68;;;1.42;;
53245;SDS011;39569;51.090;-1.786;2023-07-29T15:38:48;2.55;;;1.35;;
53245;SDS011;39569;51.090;-1.786;2023-07-29T15:41:15;6.03;;;1.95;;
53245;SDS011;39569;51.090;-1.786;2023-07-29T15:43:42;4.05;;;2.05;;
53245;SDS011;39569;51.090;-1.786;2023-07-29T15:46:08;1.88;;;1.50;;
53245;SDS011;39569;51.090;-1.786;2023-07-29T15:48:35;2.55;;;1.52;;
53245;SDS011;39569;51.090;-1.786;2023-07-29T15:51:03;4.32;;;1.95;;
53245;SDS011;39569;51.090;-1.786;2023-07-29T15:53:31;4.93;;;2.03;;
53245;SDS011;39569;51.090;-1.786;2023-07-29T15:55:57;1.05;;;0.90;;
53245;SDS011;39569;51.090;-1.786;2023-07-29T15:58:24;5.35;;;1.45;;
53245;SDS011;39569;51.090;-1.786;2023-07-29T16:00:51;2.78;;;2.05;;
53245;SDS011;39569;51.090;-1.786;2023-07-29T16:03:18;4.05;;;1.60;;
53245;SDS011;39569;51.090;-1.786;2023-07-29T16:05:44;8.38;;;2.50;;
53245;SDS011;39569;51.090;-1.786;2023-07-29T16:08:13;1.73;;;1.05;;
53245;SDS011;39569;51.090;-1.786;2023-07-29T16:10:40;1.98;;;1.23;;
53245;SDS011;39569;51.090;-1.786;2023-07-29T16:13:06;2.30;;;1.35;;
53245;SDS011;39569;51.090;-1.786;2023-07-29T16:15:33;18.23;;;2.58;;
53245;SDS011;39569;51.090;-1.786;2023-07-29T16:18:00;4.15;;;1.85;;
53245;SDS011;39569;51.090;-1.786;2023-07-29T16:20:27;10.15;;;2.53;;
53245;SDS011;39569;51.090;-1.786;2023-07-29T16:22:53;5.38;;;2.13;;
53245;SDS011;39569;51.090;-1.786;2023-07-29T16:25:21;6.82;;;2.65;;
53245;SDS011;39569;51.090;-1.786;2023-07-29T16:27:48;4.25;;;1.92;;
53245;SDS011;39569;51.090;-1.786;2023-07-29T16:30:15;4.00;;;1.30;;
53245;SDS011;39569;51.090;-1.786;2023-07-29T16:32:42;2.45;;;1.80;;
53245;SDS011;39569;51.090;-1.786;2023-07-29T16:35:09;7.18;;;1.90;;
53245;SDS011;39569;51.090;-1.786;2023-07-29T16:37:36;3.53;;;1.75;;
53245;SDS011;39569;51.090;-1.786;2023-07-29T16:40:03;3.05;;;1.38;;
53245;SDS011;39569;51.090;-1.786;2023-07-29T16:42:33;5.03;;;2.42;;
53245;SDS011;39569;51.090;-1.786;2023-07-29T16:44:59;6.70;;;1.98;;
53245;SDS011;39569;51.090;-1.786;2023-07-29T16:47:26;6.45;;;1.42;;
53245;SDS011;39569;51.090;-1.786;2023-07-29T16:49:54;9.00;;;2.38;;
53245;SDS011;39569;51.090;-1.786;2023-07-29T16:52:20;7.45;;;2.25;;
53245;SDS011;39569;51.090;-1.786;2023-07-29T16:54:47;7.45;;;2.78;;
53245;SDS011;39569;51.090;-1.786;2023-07-29T16:57:14;10.50;;;1.30;;
53245;SDS011;39569;51.090;-1.786;2023-07-29T16:59:42;18.98;;;2.50;;
53245;SDS011;39569;51.090;-1.786;2023-07-29T17:02:09;4.50;;;1.92;;
53245;SDS011;39569;51.090;-1.786;2023-07-29T17:04:36;6.38;;;2.92;;
53245;SDS011;39569;51.090;-1.786;2023-07-29T17:07:03;13.45;;;2.42;;
53245;SDS011;39569;51.090;-1.786;2023-07-29T17:09:29;9.38;;;2.05;;
53245;SDS011;39569;51.090;-1.786;2023-07-29T17:11:56;7.63;;;2.35;;
53245;SDS011;39569;51.090;-1.786;2023-07-29T17:14:24;8.32;;;2.38;;
53245;SDS011;39569;51.090;-1.786;2023-07-29T17:16:53;4.55;;;2.60;;
53245;SDS011;39569;51.090;-1.786;2023-07-29T17:19:20;8.02;;;2.95;;
53245;SDS011;39569;51.090;-1.786;2023-07-29T17:21:47;10.48;;;3.28;;
53245;SDS011;39569;51.090;-1.786;2023-07-29T17:24:13;7.07;;;2.85;;
53245;SDS011;39569;51.090;-1.786;2023-07-29T17:26:40;6.60;;;3.03;;
53245;SDS011;39569;51.090;-1.786;2023-07-29T17:29:07;6.43;;;2.33;;
53245;SDS011;39569;51.090;-1.786;2023-07-29T17:31:34;2.38;;;1.77;;
53245;SDS011;39569;51.090;-1.786;2023-07-29T17:34:02;7.22;;;2.95;;
53245;SDS011;39569;51.090;-1.786;2023-07-29T17:36:28;4.80;;;2.15;;
53245;SDS011;39569;51.090;-1.786;2023-07-29T17:38:55;3.72;;;2.22;;
53245;SDS011;39569;51.090;-1.786;2023-07-29T17:41:22;6.30;;;2.38;;
53245;SDS011;39569;51.090;-1.786;2023-07-29T17:43:49;9.98;;;2.80;;
53245;SDS011;39569;51.090;-1.786;2023-07-29T17:46:15;7.30;;;2.40;;
53245;SDS011;39569;51.090;-1.786;2023-07-29T17:48:43;5.70;;;2.20;;
53245;SDS011;39569;51.090;-1.786;2023-07-29T17:51:11;8.88;;;3.10;;
53245;SDS011;39569;51.090;-1.786;2023-07-29T17:53:38;5.20;;;2.22;;
53245;SDS011;39569;51.090;-1.786;2023-07-29T17:56:05;3.83;;;2.22;;
53245;SDS011;39569;51.090;-1.786;2023-07-29T17:58:33;3.55;;;2.38;;
53245;SDS011;39569;51.090;-1.786;2023-07-29T18:01:00;8.20;;;3.03;;
53245;SDS011;39569;51.090;-1.786;2023-07-29T18:03:26;4.00;;;2.47;;
53245;SDS011;39569;51.090;-1.786;2023-07-29T18:05:53;8.90;;;2.90;;
53245;SDS011;39569;51.090;-1.786;2023-07-29T18:08:21;6.90;;;2.70;;
53245;SDS011;39569;51.090;-1.786;2023-07-29T18:10:48;4.55;;;2.17;;
53245;SDS011;39569;51.090;-1.786;2023-07-29T18:13:15;8.63;;;3.22;;
53245;SDS011;39569;51.090;-1.786;2023-07-29T18:15:42;4.40;;;2.55;;
53245;SDS011;39569;51.090;-1.786;2023-07-29T18:18:09;4.80;;;2.88;;
53245;SDS011;39569;51.090;-1.786;2023-07-29T18:20:36;4.57;;;2.45;;
53245;SDS011;39569;51.090;-1.786;2023-07-29T18:23:02;7.25;;;3.50;;
53245;SDS011;39569;51.090;-1.786;2023-07-29T18:25:31;9.35;;;3.60;;
53245;SDS011;39569;51.090;-1.786;2023-07-29T18:27:58;3.53;;;1.90;;
53245;SDS011;39569;51.090;-1.786;2023-07-29T18:30:25;12.55;;;4.07;;
53245;SDS011;39569;51.090;-1.786;2023-07-29T18:32:52;15.45;;;4.30;;
53245;SDS011;39569;51.090;-1.786;2023-07-29T18:35:19;9.38;;;4.05;;
53245;SDS011;39569;51.090;-1.786;2023-07-29T18:37:46;12.05;;;3.20;;